sensor_id;sensor_type;location;lat;lon;timestamp;P1;durP1;ratioP1;P2;durP2;ratioP2
20302;SDS011;10310;50.906;4.622;2022-08-07T00:00:52;4.53;;;2.57;;
20302;SDS011;10310;50.906;4.622;2022-08-07T00:03:21;4.00;;;2.20;;
20302;SDS011;10310;50.906;4.622;2022-08-07T00:05:48;5.53;;;2.20;;
20302;SDS011;10310;50.906;4.622;2022-08-07T00:08:16;4.50;;;2.30;;
20302;SDS011;10310;50.906;4.622;2022-08-07T00:10:44;2.80;;;2.50;;
20302;SDS011;10310;50.906;4.622;2022-08-07T00:13:11;3.40;;;2.27;;
20302;SDS011;10310;50.906;4.622;2022-08-07T00:15:38;3.27;;;2.70;;
20302;SDS011;10310;50.906;4.622;2022-08-07T00:18:05;4.33;;;2.47;;
20302;SDS011;10310;50.906;4.622;2022-08-07T00:20:35;2.53;;;2.33;;
20302;SDS011;10310;50.906;4.622;2022-08-07T00:23:02;3.27;;;2.43;;
20302;SDS011;10310;50.906;4.622;2022-08-07T00:25:31;3.60;;;2.80;;
20302;SDS011;10310;50.906;4.622;2022-08-07T00:27:58;2.53;;;2.33;;
20302;SDS011;10310;50.906;4.622;2022-08-07T00:30:25;3.60;;;2.50;;
20302;SDS011;10310;50.906;4.622;2022-08-07T00:32:52;3.97;;;2.30;;
20302;SDS011;10310;50.906;4.622;2022-08-07T00:35:20;2.53;;;2.33;;
20302;SDS011;10310;50.906;4.622;2022-08-07T00:37:48;3.90;;;2.77;;
20302;SDS011;10310;50.906;4.622;2022-08-07T00:40:15;3.27;;;2.93;;
20302;SDS011;10310;50.906;4.622;2022-08-07T00:42:43;2.40;;;2.20;;
20302;SDS011;10310;50.906;4.622;2022-08-07T00:45:10;4.97;;;2.63;;
20302;SDS011;10310;50.906;4.622;2022-08-07T00:47:37;2.90;;;2.60;;
20302;SDS011;10310;50.906;4.622;2022-08-07T00:50:05;2.80;;;2.60;;
20302;SDS011;10310;50.906;4.622;2022-08-07T00:52:32;2.60;;;2.40;;
20302;SDS011;10310;50.906;4.622;2022-08-07T00:55:01;3.67;;;2.60;;
20302;SDS011;10310;50.906;4.622;2022-08-07T00:57:31;3.97;;;2.60;;
20302;SDS011;10310;50.906;4.622;2022-08-07T00:59:58;6.00;;;2.70;;
20302;SDS011;10310;50.906;4.622;2022-08-07T01:02:25;3.27;;;2.57;;
20302;SDS011;10310;50.906;4.622;2022-08-07T01:04:52;4.47;;;2.77;;
20302;SDS011;10310;50.906;4.622;2022-08-07T01:07:19;4.00;;;2.60;;
20302;SDS011;10310;50.906;4.622;2022-08-07T01:09:47;4.23;;;3.00;;
20302;SDS011;10310;50.906;4.622;2022-08-07T01:12:15;3.00;;;2.70;;
20302;SDS011;10310;50.906;4.622;2022-08-07T01:14:42;3.10;;;2.67;;
20302;SDS011;10310;50.906;4.622;2022-08-07T01:17:10;3.17;;;2.87;;
20302;SDS011;10310;50.906;4.622;2022-08-07T01:19:38;5.43;;;3.07;;
20302;SDS011;10310;50.906;4.622;2022-08-07T01:22:07;3.47;;;2.80;;
20302;SDS011;10310;50.906;4.622;2022-08-07T01:24:34;4.00;;;3.10;;
20302;SDS011;10310;50.906;4.622;2022-08-07T01:27:02;3.57;;;3.00;;
20302;SDS011;10310;50.906;4.622;2022-08-07T01:29:29;4.63;;;3.10;;
20302;SDS011;10310;50.906;4.622;2022-08-07T01:31:58;3.20;;;2.90;;
20302;SDS011;10310;50.906;4.622;2022-08-07T01:34:25;4.30;;;3.00;;
20302;SDS011;10310;50.906;4.622;2022-08-07T01:36:55;4.17;;;3.30;;
20302;SDS011;10310;50.906;4.622;2022-08-07T01:39:24;3.20;;;2.83;;
20302;SDS011;10310;50.906;4.622;2022-08-07T01:41:51;4.30;;;2.90;;
20302;SDS011;10310;50.906;4.622;2022-08-07T01:44:18;4.57;;;2.90;;
20302;SDS011;10310;50.906;4.622;2022-08-07T01:46:45;5.07;;;3.20;;
20302;SDS011;10310;50.906;4.622;2022-08-07T01:49:12;3.20;;;2.90;;
20302;SDS011;10310;50.906;4.622;2022-08-07T01:51:40;4.67;;;3.37;;
20302;SDS011;10310;50.906;4.622;2022-08-07T01:54:09;4.93;;;3.07;;
20302;SDS011;10310;50.906;4.622;2022-08-07T01:56:42;3.23;;;2.93;;
20302;SDS011;10310;50.906;4.622;2022-08-07T01:59:14;3.47;;;3.10;;
20302;SDS011;10310;50.906;4.622;2022-08-07T02:01:47;3.40;;;3.10;;
20302;SDS011;10310;50.906;4.622;2022-08-07T02:04:23;4.97;;;3.57;;
20302;SDS011;10310;50.906;4.622;2022-08-07T02:06:54;3.90;;;3.60;;
20302;SDS011;10310;50.906;4.622;2022-08-07T02:09:25;5.33;;;3.57;;
20302;SDS011;10310;50.906;4.622;2022-08-07T02:11:54;4.03;;;3.40;;
20302;SDS011;10310;50.906;4.622;2022-08-07T02:14:23;4.13;;;3.43;;
20302;SDS011;10310;50.906;4.622;2022-08-07T02:16:53;4.70;;;3.33;;
20302;SDS011;10310;50.906;4.622;2022-08-07T02:19:21;3.60;;;3.30;;
20302;SDS011;10310;50.906;4.622;2022-08-07T02:21:50;5.53;;;3.83;;
20302;SDS011;10310;50.906;4.622;2022-08-07T02:24:19;4.17;;;3.13;;
20302;SDS011;10310;50.906;4.622;2022-08-07T02:26:47;4.27;;;3.83;;
20302;SDS011;10310;50.906;4.622;2022-08-07T02:29:16;4.27;;;3.40;;
20302;SDS011;10310;50.906;4.622;2022-08-07T02:31:47;4.03;;;3.53;;
20302;SDS011;10310;50.906;4.622;2022-08-07T02:34:15;4.60;;;3.50;;
20302;SDS011;10310;50.906;4.622;2022-08-07T02:36:43;6.17;;;3.73;;
20302;SDS011;10310;50.906;4.622;2022-08-07T02:39:11;5.43;;;3.80;;
20302;SDS011;10310;50.906;4.622;2022-08-07T02:41:40;4.20;;;3.70;;
20302;SDS011;10310;50.906;4.622;2022-08-07T02:44:07;9.30;;;4.57;;
20302;SDS011;10310;50.906;4.622;2022-08-07T02:46:36;5.10;;;3.60;;
20302;SDS011;10310;50.906;4.622;2022-08-07T02:49:04;4.00;;;3.70;;
20302;SDS011;10310;50.906;4.622;2022-08-07T02:51:31;9.20;;;3.73;;
20302;SDS011;10310;50.906;4.622;2022-08-07T02:54:01;3.87;;;3.57;;
20302;SDS011;10310;50.906;4.622;2022-08-07T02:56:31;4.20;;;3.80;;
20302;SDS011;10310;50.906;4.622;2022-08-07T02:58:59;4.20;;;3.80;;
20302;SDS011;10310;50.906;4.622;2022-08-07T03:01:29;5.37;;;3.77;;
20302;SDS011;10310;50.906;4.622;2022-08-07T03:03:58;4.13;;;3.53;;
20302;SDS011;10310;50.906;4.622;2022-08-07T03:06:27;4.07;;;3.67;;
20302;SDS011;10310;50.906;4.622;2022-08-07T03:08:55;4.47;;;4.07;;
20302;SDS011;10310;50.906;4.622;2022-08-07T03:11:24;4.67;;;4.27;;
20302;SDS011;10310;50.906;4.622;2022-08-07T03:13:52;4.67;;;3.80;;
20302;SDS011;10310;50.906;4.622;2022-08-07T03:16:19;6.13;;;4.70;;
20302;SDS011;10310;50.906;4.622;2022-08-07T03:18:47;5.80;;;5.20;;
20302;SDS011;10310;50.906;4.622;2022-08-07T03:21:16;8.00;;;4.10;;
20302;SDS011;10310;50.906;4.622;2022-08-07T03:23:43;6.93;;;5.23;;
20302;SDS011;10310;50.906;4.622;2022-08-07T03:26:12;6.67;;;4.53;;
20302;SDS011;10310;50.906;4.622;2022-08-07T03:28:44;4.87;;;4.33;;
20302;SDS011;10310;50.906;4.622;2022-08-07T03:31:12;6.43;;;4.43;;
20302;SDS011;10310;50.906;4.622;2022-08-07T03:33:45;5.80;;;4.40;;
20302;SDS011;10310;50.906;4.622;2022-08-07T03:36:16;6.57;;;4.43;;
20302;SDS011;10310;50.906;4.622;2022-08-07T03:38:45;6.90;;;4.43;;
20302;SDS011;10310;50.906;4.622;2022-08-07T03:41:14;6.67;;;5.10;;
20302;SDS011;10310;50.906;4.622;2022-08-07T03:43:41;7.00;;;4.90;;
20302;SDS011;10310;50.906;4.622;2022-08-07T03:46:09;5.47;;;4.83;;
20302;SDS011;10310;50.906;4.622;2022-08-07T03:48:38;6.10;;;4.90;;
20302;SDS011;10310;50.906;4.622;2022-08-07T03:51:05;6.67;;;4.60;;
20302;SDS011;10310;50.906;4.622;2022-08-07T03:53:35;7.30;;;5.17;;
20302;SDS011;10310;50.906;4.622;2022-08-07T03:56:03;6.80;;;5.07;;
20302;SDS011;10310;50.906;4.622;2022-08-07T03:58:31;5.60;;;5.10;;
20302;SDS011;10310;50.906;4.622;2022-08-07T04:00:58;6.03;;;4.87;;
20302;SDS011;10310;50.906;4.622;2022-08-07T04:03:27;5.50;;;5.00;;
20302;SDS011;10310;50.906;4.622;2022-08-07T04:05:54;9.30;;;5.37;;
20302;SDS011;10310;50.906;4.622;2022-08-07T04:08:21;5.73;;;5.13;;
20302;SDS011;10310;50.906;4.622;2022-08-07T04:10:51;6.87;;;5.10;;
20302;SDS011;10310;50.906;4.622;2022-08-07T04:13:18;5.83;;;5.23;;
20302;SDS011;10310;50.906;4.622;2022-08-07T04:15:46;6.90;;;5.60;;
20302;SDS011;10310;50.906;4.622;2022-08-07T04:18:13;5.40;;;4.90;;
20302;SDS011;10310;50.906;4.622;2022-08-07T04:20:41;5.27;;;4.77;;
20302;SDS011;10310;50.906;4.622;2022-08-07T04:23:08;5.60;;;5.10;;
20302;SDS011;10310;50.906;4.622;2022-08-07T04:25:36;6.13;;;5.53;;
20302;SDS011;10310;50.906;4.622;2022-08-07T04:28:05;5.70;;;4.90;;
20302;SDS011;10310;50.906;4.622;2022-08-07T04:30:34;6.63;;;5.07;;
20302;SDS011;10310;50.906;4.622;2022-08-07T04:33:04;5.67;;;5.17;;
20302;SDS011;10310;50.906;4.622;2022-08-07T04:35:32;5.60;;;5.10;;
20302;SDS011;10310;50.906;4.622;2022-08-07T04:38:02;6.37;;;5.10;;
20302;SDS011;10310;50.906;4.622;2022-08-07T04:40:30;5.60;;;5.10;;
20302;SDS011;10310;50.906;4.622;2022-08-07T04:42:57;5.73;;;5.13;;
20302;SDS011;10310;50.906;4.622;2022-08-07T04:45:27;5.73;;;5.17;;
20302;SDS011;10310;50.906;4.622;2022-08-07T04:48:03;6.27;;;4.90;;
20302;SDS011;10310;50.906;4.622;2022-08-07T04:50:36;6.00;;;5.20;;
20302;SDS011;10310;50.906;4.622;2022-08-07T04:53:07;5.50;;;5.00;;
20302;SDS011;10310;50.906;4.622;2022-08-07T04:55:41;6.13;;;5.50;;
20302;SDS011;10310;50.906;4.622;2022-08-07T04:58:16;5.83;;;5.30;;
20302;SDS011;10310;50.906;4.622;2022-08-07T05:00:52;6.13;;;4.97;;
20302;SDS011;10310;50.906;4.622;2022-08-07T05:03:22;7.00;;;5.50;;
20302;SDS011;10310;50.906;4.622;2022-08-07T05:05:57;6.57;;;5.60;;
20302;SDS011;10310;50.906;4.622;2022-08-07T05:08:32;8.60;;;5.77;;
20302;SDS011;10310;50.906;4.622;2022-08-07T05:11:08;6.57;;;5.77;;
20302;SDS011;10310;50.906;4.622;2022-08-07T05:13:40;6.33;;;5.47;;
20302;SDS011;10310;50.906;4.622;2022-08-07T05:16:13;6.83;;;6.23;;
20302;SDS011;10310;50.906;4.622;2022-08-07T05:18:44;6.90;;;5.17;;
20302;SDS011;10310;50.906;4.622;2022-08-07T05:21:16;8.33;;;5.80;;
20302;SDS011;10310;50.906;4.622;2022-08-07T05:23:46;6.73;;;5.43;;
20302;SDS011;10310;50.906;4.622;2022-08-07T05:26:17;6.97;;;5.37;;
20302;SDS011;10310;50.906;4.622;2022-08-07T05:28:46;7.43;;;5.80;;
20302;SDS011;10310;50.906;4.622;2022-08-07T05:31:18;7.13;;;5.93;;
20302;SDS011;10310;50.906;4.622;2022-08-07T05:33:47;7.13;;;6.17;;
20302;SDS011;10310;50.906;4.622;2022-08-07T05:36:16;7.60;;;6.27;;
20302;SDS011;10310;50.906;4.622;2022-08-07T05:38:45;7.33;;;6.30;;
20302;SDS011;10310;50.906;4.622;2022-08-07T05:41:13;8.17;;;7.17;;
20302;SDS011;10310;50.906;4.622;2022-08-07T05:43:42;10.30;;;7.80;;
20302;SDS011;10310;50.906;4.622;2022-08-07T05:46:11;9.60;;;8.30;;
20302;SDS011;10310;50.906;4.622;2022-08-07T05:48:40;9.27;;;7.80;;
20302;SDS011;10310;50.906;4.622;2022-08-07T05:51:07;9.93;;;8.23;;
20302;SDS011;10310;50.906;4.622;2022-08-07T05:53:35;10.27;;;8.70;;
20302;SDS011;10310;50.906;4.622;2022-08-07T05:56:02;9.67;;;8.67;;
20302;SDS011;10310;50.906;4.622;2022-08-07T05:58:30;11.13;;;9.93;;
20302;SDS011;10310;50.906;4.622;2022-08-07T06:00:58;11.33;;;10.17;;
20302;SDS011;10310;50.906;4.622;2022-08-07T06:03:26;10.47;;;9.47;;
20302;SDS011;10310;50.906;4.622;2022-08-07T06:05:55;11.37;;;9.73;;
20302;SDS011;10310;50.906;4.622;2022-08-07T06:08:23;10.40;;;9.33;;
20302;SDS011;10310;50.906;4.622;2022-08-07T06:10:50;10.77;;;9.67;;
20302;SDS011;10310;50.906;4.622;2022-08-07T06:13:18;11.63;;;9.23;;
20302;SDS011;10310;50.906;4.622;2022-08-07T06:15:45;10.07;;;9.17;;
20302;SDS011;10310;50.906;4.622;2022-08-07T06:18:14;10.50;;;8.73;;
20302;SDS011;10310;50.906;4.622;2022-08-07T06:20:42;10.27;;;9.20;;
20302;SDS011;10310;50.906;4.622;2022-08-07T06:23:11;10.17;;;9.17;;
20302;SDS011;10310;50.906;4.622;2022-08-07T06:25:38;10.10;;;9.03;;
20302;SDS011;10310;50.906;4.622;2022-08-07T06:28:07;9.83;;;8.93;;
20302;SDS011;10310;50.906;4.622;2022-08-07T06:30:36;9.40;;;8.50;;
20302;SDS011;10310;50.906;4.622;2022-08-07T06:33:04;10.00;;;9.00;;
20302;SDS011;10310;50.906;4.622;2022-08-07T06:35:32;10.37;;;8.60;;
20302;SDS011;10310;50.906;4.622;2022-08-07T06:38:00;9.33;;;8.33;;
20302;SDS011;10310;50.906;4.622;2022-08-07T06:40:29;9.40;;;8.40;;
20302;SDS011;10310;50.906;4.622;2022-08-07T06:43:00;9.33;;;8.40;;
20302;SDS011;10310;50.906;4.622;2022-08-07T06:45:31;9.63;;;8.63;;
20302;SDS011;10310;50.906;4.622;2022-08-07T06:47:58;9.30;;;7.47;;
20302;SDS011;10310;50.906;4.622;2022-08-07T06:50:25;10.70;;;7.77;;
20302;SDS011;10310;50.906;4.622;2022-08-07T06:52:53;8.20;;;7.40;;
20302;SDS011;10310;50.906;4.622;2022-08-07T06:55:22;8.30;;;7.00;;
20302;SDS011;10310;50.906;4.622;2022-08-07T06:57:54;9.10;;;8.03;;
20302;SDS011;10310;50.906;4.622;2022-08-07T07:00:23;8.53;;;7.70;;
20302;SDS011;10310;50.906;4.622;2022-08-07T07:02:52;8.50;;;7.57;;
20302;SDS011;10310;50.906;4.622;2022-08-07T07:05:21;8.97;;;7.23;;
20302;SDS011;10310;50.906;4.622;2022-08-07T07:07:48;8.70;;;6.97;;
20302;SDS011;10310;50.906;4.622;2022-08-07T07:10:15;8.27;;;6.47;;
20302;SDS011;10310;50.906;4.622;2022-08-07T07:12:54;9.40;;;7.33;;
20302;SDS011;10310;50.906;4.622;2022-08-07T07:15:27;7.57;;;6.73;;
20302;SDS011;10310;50.906;4.622;2022-08-07T07:17:57;7.87;;;6.97;;
20302;SDS011;10310;50.906;4.622;2022-08-07T07:20:31;8.30;;;7.47;;
20302;SDS011;10310;50.906;4.622;2022-08-07T07:23:00;8.00;;;7.20;;
20302;SDS011;10310;50.906;4.622;2022-08-07T07:25:28;9.30;;;6.90;;
20302;SDS011;10310;50.906;4.622;2022-08-07T07:27:59;7.37;;;6.63;;
20302;SDS011;10310;50.906;4.622;2022-08-07T07:30:31;7.30;;;6.50;;
20302;SDS011;10310;50.906;4.622;2022-08-07T07:33:01;7.47;;;6.67;;
20302;SDS011;10310;50.906;4.622;2022-08-07T07:35:30;7.17;;;6.20;;
20302;SDS011;10310;50.906;4.622;2022-08-07T07:37:58;8.57;;;6.53;;
20302;SDS011;10310;50.906;4.622;2022-08-07T07:40:28;6.67;;;5.97;;
20302;SDS011;10310;50.906;4.622;2022-08-07T07:42:58;8.80;;;6.23;;
20302;SDS011;10310;50.906;4.622;2022-08-07T07:45:28;7.13;;;6.17;;
20302;SDS011;10310;50.906;4.622;2022-08-07T07:47:56;6.33;;;5.73;;
20302;SDS011;10310;50.906;4.622;2022-08-07T07:50:26;6.73;;;6.13;;
20302;SDS011;10310;50.906;4.622;2022-08-07T07:52:54;7.40;;;6.50;;
20302;SDS011;10310;50.906;4.622;2022-08-07T07:55:22;7.30;;;5.57;;
20302;SDS011;10310;50.906;4.622;2022-08-07T07:57:52;6.40;;;5.73;;
20302;SDS011;10310;50.906;4.622;2022-08-07T08:00:23;6.77;;;5.20;;
20302;SDS011;10310;50.906;4.622;2022-08-07T08:02:52;5.37;;;4.80;;
20302;SDS011;10310;50.906;4.622;2022-08-07T08:05:22;6.93;;;5.33;;
20302;SDS011;10310;50.906;4.622;2022-08-07T08:07:50;7.23;;;4.80;;
20302;SDS011;10310;50.906;4.622;2022-08-07T08:10:17;7.57;;;5.13;;
20302;SDS011;10310;50.906;4.622;2022-08-07T08:12:45;6.43;;;4.90;;
20302;SDS011;10310;50.906;4.622;2022-08-07T08:15:14;6.10;;;4.83;;
20302;SDS011;10310;50.906;4.622;2022-08-07T08:17:42;6.37;;;4.73;;
20302;SDS011;10310;50.906;4.622;2022-08-07T08:20:10;5.13;;;4.63;;
20302;SDS011;10310;50.906;4.622;2022-08-07T08:22:39;8.93;;;4.13;;
20302;SDS011;10310;50.906;4.622;2022-08-07T08:25:25;5.83;;;4.00;;
20302;SDS011;10310;50.906;4.622;2022-08-07T08:28:14;5.73;;;3.57;;
20302;SDS011;10310;50.906;4.622;2022-08-07T08:30:44;4.30;;;3.90;;
20302;SDS011;10310;50.906;4.622;2022-08-07T08:33:17;7.03;;;4.00;;
20302;SDS011;10310;50.906;4.622;2022-08-07T08:35:46;5.50;;;3.60;;
20302;SDS011;10310;50.906;4.622;2022-08-07T08:38:14;5.53;;;4.07;;
20302;SDS011;10310;50.906;4.622;2022-08-07T08:40:46;4.23;;;3.43;;
20302;SDS011;10310;50.906;4.622;2022-08-07T08:43:16;4.97;;;3.80;;
20302;SDS011;10310;50.906;4.622;2022-08-07T08:45:51;3.70;;;3.40;;
20302;SDS011;10310;50.906;4.622;2022-08-07T08:48:26;5.27;;;3.77;;
20302;SDS011;10310;50.906;4.622;2022-08-07T08:51:01;3.93;;;3.00;;
20302;SDS011;10310;50.906;4.622;2022-08-07T08:53:33;3.67;;;3.13;;
20302;SDS011;10310;50.906;4.622;2022-08-07T08:56:08;3.73;;;2.87;;
20302;SDS011;10310;50.906;4.622;2022-08-07T08:58:42;3.33;;;2.80;;
20302;SDS011;10310;50.906;4.622;2022-08-07T09:01:17;5.77;;;3.10;;
20302;SDS011;10310;50.906;4.622;2022-08-07T09:03:57;3.90;;;3.00;;
20302;SDS011;10310;50.906;4.622;2022-08-07T09:06:34;3.77;;;3.17;;
20302;SDS011;10310;50.906;4.622;2022-08-07T09:09:09;4.70;;;3.37;;
20302;SDS011;10310;50.906;4.622;2022-08-07T09:11:48;3.47;;;3.17;;
20302;SDS011;10310;50.906;4.622;2022-08-07T09:14:18;3.73;;;2.90;;
20302;SDS011;10310;50.906;4.622;2022-08-07T09:16:59;3.67;;;3.07;;
20302;SDS011;10310;50.906;4.622;2022-08-07T09:19:39;3.90;;;3.10;;
20302;SDS011;10310;50.906;4.622;2022-08-07T09:22:14;4.93;;;3.63;;
20302;SDS011;10310;50.906;4.622;2022-08-07T09:24:51;5.27;;;3.20;;
20302;SDS011;10310;50.906;4.622;2022-08-07T09:27:27;4.37;;;3.33;;
20302;SDS011;10310;50.906;4.622;2022-08-07T09:29:59;3.27;;;2.60;;
20302;SDS011;10310;50.906;4.622;2022-08-07T09:32:45;3.40;;;3.00;;
20302;SDS011;10310;50.906;4.622;2022-08-07T09:35:26;5.30;;;3.57;;
20302;SDS011;10310;50.906;4.622;2022-08-07T09:38:03;3.80;;;3.00;;
20302;SDS011;10310;50.906;4.622;2022-08-07T09:40:41;4.57;;;3.10;;
20302;SDS011;10310;50.906;4.622;2022-08-07T09:43:21;4.57;;;3.57;;
20302;SDS011;10310;50.906;4.622;2022-08-07T09:46:01;5.30;;;3.50;;
20302;SDS011;10310;50.906;4.622;2022-08-07T09:48:39;4.30;;;3.30;;
20302;SDS011;10310;50.906;4.622;2022-08-07T09:51:18;3.83;;;3.40;;
20302;SDS011;10310;50.906;4.622;2022-08-07T09:54:05;4.23;;;2.70;;
20302;SDS011;10310;50.906;4.622;2022-08-07T09:56:43;4.30;;;2.70;;
20302;SDS011;10310;50.906;4.622;2022-08-07T09:59:32;3.87;;;3.23;;
20302;SDS011;10310;50.906;4.622;2022-08-07T10:02:19;4.10;;;3.23;;
20302;SDS011;10310;50.906;4.622;2022-08-07T10:05:02;6.50;;;3.13;;
20302;SDS011;10310;50.906;4.622;2022-08-07T10:07:56;4.03;;;2.70;;
20302;SDS011;10310;50.906;4.622;2022-08-07T10:10:34;4.20;;;2.80;;
20302;SDS011;10310;50.906;4.622;2022-08-07T10:13:11;4.67;;;2.93;;
20302;SDS011;10310;50.906;4.622;2022-08-07T10:15:48;4.17;;;2.97;;
20302;SDS011;10310;50.906;4.622;2022-08-07T10:18:35;4.93;;;3.20;;
20302;SDS011;10310;50.906;4.622;2022-08-07T10:21:20;4.73;;;3.63;;
20302;SDS011;10310;50.906;4.622;2022-08-07T10:24:08;3.97;;;3.00;;
20302;SDS011;10310;50.906;4.622;2022-08-07T10:26:57;5.57;;;2.97;;
20302;SDS011;10310;50.906;4.622;2022-08-07T10:29:46;4.27;;;2.80;;
20302;SDS011;10310;50.906;4.622;2022-08-07T10:32:36;4.60;;;2.80;;
20302;SDS011;10310;50.906;4.622;2022-08-07T10:35:21;3.90;;;3.50;;
20302;SDS011;10310;50.906;4.622;2022-08-07T10:38:01;3.37;;;2.67;;
20302;SDS011;10310;50.906;4.622;2022-08-07T10:40:42;6.57;;;3.07;;
20302;SDS011;10310;50.906;4.622;2022-08-07T10:43:14;3.53;;;3.17;;
20302;SDS011;10310;50.906;4.622;2022-08-07T10:45:46;3.10;;;2.80;;
20302;SDS011;10310;50.906;4.622;2022-08-07T10:48:25;2.90;;;2.60;;
20302;SDS011;10310;50.906;4.622;2022-08-07T10:51:04;5.00;;;2.90;;
20302;SDS011;10310;50.906;4.622;2022-08-07T10:53:35;2.73;;;2.13;;
20302;SDS011;10310;50.906;4.622;2022-08-07T10:56:12;2.80;;;2.50;;
20302;SDS011;10310;50.906;4.622;2022-08-07T10:58:54;3.33;;;2.23;;
20302;SDS011;10310;50.906;4.622;2022-08-07T11:01:35;2.97;;;2.27;;
20302;SDS011;10310;50.906;4.622;2022-08-07T11:04:09;3.00;;;2.70;;
20302;SDS011;10310;50.906;4.622;2022-08-07T11:06:44;3.90;;;2.87;;
20302;SDS011;10310;50.906;4.622;2022-08-07T11:09:21;5.10;;;3.33;;
20302;SDS011;10310;50.906;4.622;2022-08-07T11:11:55;2.87;;;2.30;;
20302;SDS011;10310;50.906;4.622;2022-08-07T11:14:30;4.17;;;2.77;;
20302;SDS011;10310;50.906;4.622;2022-08-07T11:17:03;3.73;;;2.90;;
20302;SDS011;10310;50.906;4.622;2022-08-07T11:19:39;4.83;;;2.77;;
20302;SDS011;10310;50.906;4.622;2022-08-07T11:22:11;3.73;;;3.00;;
20302;SDS011;10310;50.906;4.622;2022-08-07T11:24:44;2.60;;;2.40;;
20302;SDS011;10310;50.906;4.622;2022-08-07T11:27:19;2.83;;;2.53;;
20302;SDS011;10310;50.906;4.622;2022-08-07T11:29:51;3.10;;;2.80;;
20302;SDS011;10310;50.906;4.622;2022-08-07T11:32:27;4.70;;;2.87;;
20302;SDS011;10310;50.906;4.622;2022-08-07T11:35:00;3.23;;;2.90;;
20302;SDS011;10310;50.906;4.622;2022-08-07T11:37:40;4.20;;;3.20;;
20302;SDS011;10310;50.906;4.622;2022-08-07T11:40:21;4.00;;;2.30;;
20302;SDS011;10310;50.906;4.622;2022-08-07T11:43:01;3.73;;;2.70;;
20302;SDS011;10310;50.906;4.622;2022-08-07T11:45:36;2.70;;;2.40;;
20302;SDS011;10310;50.906;4.622;2022-08-07T11:48:16;5.63;;;2.97;;
20302;SDS011;10310;50.906;4.622;2022-08-07T11:51:01;6.07;;;3.40;;
20302;SDS011;10310;50.906;4.622;2022-08-07T11:53:39;4.13;;;2.43;;
20302;SDS011;10310;50.906;4.622;2022-08-07T11:56:19;2.40;;;2.20;;
20302;SDS011;10310;50.906;4.622;2022-08-07T11:59:16;3.00;;;2.33;;
20302;SDS011;10310;50.906;4.622;2022-08-07T12:02:10;2.97;;;2.47;;
20302;SDS011;10310;50.906;4.622;2022-08-07T12:04:55;4.33;;;2.50;;
20302;SDS011;10310;50.906;4.622;2022-08-07T12:07:33;2.77;;;2.40;;
20302;SDS011;10310;50.906;4.622;2022-08-07T12:10:07;3.07;;;2.40;;
20302;SDS011;10310;50.906;4.622;2022-08-07T12:12:41;3.07;;;2.40;;
20302;SDS011;10310;50.906;4.622;2022-08-07T12:15:14;3.53;;;2.47;;
20302;SDS011;10310;50.906;4.622;2022-08-07T12:17:47;2.70;;;2.30;;
20302;SDS011;10310;50.906;4.622;2022-08-07T12:20:19;4.83;;;2.67;;
20302;SDS011;10310;50.906;4.622;2022-08-07T12:22:54;3.97;;;2.80;;
20302;SDS011;10310;50.906;4.622;2022-08-07T12:25:38;3.07;;;2.80;;
20302;SDS011;10310;50.906;4.622;2022-08-07T12:28:22;3.20;;;2.60;;
20302;SDS011;10310;50.906;4.622;2022-08-07T12:30:56;2.87;;;2.53;;
20302;SDS011;10310;50.906;4.622;2022-08-07T12:33:28;4.57;;;2.67;;
20302;SDS011;10310;50.906;4.622;2022-08-07T12:35:58;3.80;;;2.70;;
20302;SDS011;10310;50.906;4.622;2022-08-07T12:38:26;3.13;;;2.80;;
20302;SDS011;10310;50.906;4.622;2022-08-07T12:40:54;2.80;;;2.60;;
20302;SDS011;10310;50.906;4.622;2022-08-07T12:43:26;4.13;;;2.70;;
20302;SDS011;10310;50.906;4.622;2022-08-07T12:46:05;4.33;;;2.53;;
20302;SDS011;10310;50.906;4.622;2022-08-07T12:48:43;3.83;;;2.30;;
20302;SDS011;10310;50.906;4.622;2022-08-07T12:51:14;2.60;;;2.40;;
20302;SDS011;10310;50.906;4.622;2022-08-07T12:53:46;3.70;;;2.47;;
20302;SDS011;10310;50.906;4.622;2022-08-07T12:56:18;4.37;;;2.63;;
20302;SDS011;10310;50.906;4.622;2022-08-07T12:58:52;3.33;;;2.60;;
20302;SDS011;10310;50.906;4.622;2022-08-07T13:01:40;4.00;;;2.97;;
20302;SDS011;10310;50.906;4.622;2022-08-07T13:07:32;2.50;;;2.30;;
20302;SDS011;10310;50.906;4.622;2022-08-07T13:10:22;2.80;;;2.50;;
20302;SDS011;10310;50.906;4.622;2022-08-07T13:13:00;3.50;;;2.50;;
20302;SDS011;10310;50.906;4.622;2022-08-07T13:15:41;3.27;;;2.27;;
20302;SDS011;10310;50.906;4.622;2022-08-07T13:18:20;2.57;;;2.13;;
20302;SDS011;10310;50.906;4.622;2022-08-07T13:20:58;2.70;;;2.33;;
20302;SDS011;10310;50.906;4.622;2022-08-07T13:23:31;2.37;;;2.17;;
20302;SDS011;10310;50.906;4.622;2022-08-07T13:26:06;2.77;;;2.40;;
20302;SDS011;10310;50.906;4.622;2022-08-07T13:28:40;2.20;;;2.00;;
20302;SDS011;10310;50.906;4.622;2022-08-07T13:31:13;4.83;;;2.03;;
20302;SDS011;10310;50.906;4.622;2022-08-07T13:33:47;2.20;;;2.00;;
20302;SDS011;10310;50.906;4.622;2022-08-07T13:36:22;2.50;;;2.20;;
20302;SDS011;10310;50.906;4.622;2022-08-07T13:38:57;2.63;;;2.13;;
20302;SDS011;10310;50.906;4.622;2022-08-07T13:41:32;2.60;;;2.30;;
20302;SDS011;10310;50.906;4.622;2022-08-07T13:44:08;3.60;;;2.40;;
20302;SDS011;10310;50.906;4.622;2022-08-07T13:46:37;2.67;;;1.97;;
20302;SDS011;10310;50.906;4.622;2022-08-07T13:49:09;3.20;;;2.20;;
20302;SDS011;10310;50.906;4.622;2022-08-07T13:51:38;2.20;;;2.03;;
20302;SDS011;10310;50.906;4.622;2022-08-07T13:54:07;2.23;;;1.67;;
20302;SDS011;10310;50.906;4.622;2022-08-07T13:56:36;2.20;;;1.90;;
20302;SDS011;10310;50.906;4.622;2022-08-07T13:59:06;1.80;;;1.70;;
20302;SDS011;10310;50.906;4.622;2022-08-07T14:01:37;2.43;;;1.90;;
20302;SDS011;10310;50.906;4.622;2022-08-07T14:04:11;2.13;;;2.00;;
20302;SDS011;10310;50.906;4.622;2022-08-07T14:06:42;2.33;;;2.00;;
20302;SDS011;10310;50.906;4.622;2022-08-07T14:09:14;2.00;;;1.90;;
20302;SDS011;10310;50.906;4.622;2022-08-07T14:11:46;3.17;;;2.13;;
20302;SDS011;10310;50.906;4.622;2022-08-07T14:14:17;3.93;;;1.90;;
20302;SDS011;10310;50.906;4.622;2022-08-07T14:16:47;2.63;;;2.20;;
20302;SDS011;10310;50.906;4.622;2022-08-07T14:19:17;2.30;;;2.00;;
20302;SDS011;10310;50.906;4.622;2022-08-07T14:21:49;2.83;;;2.10;;
20302;SDS011;10310;50.906;4.622;2022-08-07T14:24:19;2.23;;;2.00;;
20302;SDS011;10310;50.906;4.622;2022-08-07T14:26:53;3.53;;;1.93;;
20302;SDS011;10310;50.906;4.622;2022-08-07T14:29:22;3.00;;;2.10;;
20302;SDS011;10310;50.906;4.622;2022-08-07T14:31:56;2.60;;;1.90;;
20302;SDS011;10310;50.906;4.622;2022-08-07T14:34:28;2.10;;;1.90;;
20302;SDS011;10310;50.906;4.622;2022-08-07T14:36:58;1.70;;;1.60;;
20302;SDS011;10310;50.906;4.622;2022-08-07T14:39:26;2.37;;;2.03;;
20302;SDS011;10310;50.906;4.622;2022-08-07T14:41:54;2.75;;;1.60;;
20302;SDS011;10310;50.906;4.622;2022-08-07T14:44:23;1.98;;;1.73;;
20302;SDS011;10310;50.906;4.622;2022-08-07T14:46:52;2.20;;;2.00;;
20302;SDS011;10310;50.906;4.622;2022-08-07T14:49:21;2.63;;;1.90;;
20302;SDS011;10310;50.906;4.622;2022-08-07T14:51:56;2.05;;;1.80;;
20302;SDS011;10310;50.906;4.622;2022-08-07T14:54:25;3.13;;;1.65;;
20302;SDS011;10310;50.906;4.622;2022-08-07T14:56:55;2.15;;;1.58;;
20302;SDS011;10310;50.906;4.622;2022-08-07T14:59:23;3.05;;;2.05;;
20302;SDS011;10310;50.906;4.622;2022-08-07T15:01:52;1.77;;;1.67;;
20302;SDS011;10310;50.906;4.622;2022-08-07T15:04:21;3.45;;;1.95;;
20302;SDS011;10310;50.906;4.622;2022-08-07T15:06:49;1.95;;;1.73;;
20302;SDS011;10310;50.906;4.622;2022-08-07T15:09:19;2.10;;;1.70;;
20302;SDS011;10310;50.906;4.622;2022-08-07T15:11:50;4.37;;;1.40;;
20302;SDS011;10310;50.906;4.622;2022-08-07T15:14:20;1.57;;;1.47;;
20302;SDS011;10310;50.906;4.622;2022-08-07T15:16:49;1.70;;;1.60;;
20302;SDS011;10310;50.906;4.622;2022-08-07T15:19:23;1.93;;;1.80;;